White Earth, Minnesota
Current Conditions -  °F | °C
As of 4:15 AM on Tuesday 27 Jan 2015 (Local Time) from K3N8 Reporting Station
Haze Haze  
Wind Chill: 25°   Ceiling: 200
Heat Index: 25°   Visibility: 1.5mi
Dew Point: 25°   Wind: 3mph
Humidity: 97%   Direction: 150°SSE
Pressure: 30.04"   Gusts: NA
Location:  47.1°N, 95.84°W
Report Text: K3N8 271015Z AUTO 15003KT 1 1/2SM BR OVC002 M04/M04 A3004 RMK AO2 T10371041
Loading
Personal Weather Stations






























Interactive Weather Map New forecast layout! Learn more

10-Day Weather Forecast

Advertisements
Track Severe Weather on mobile